sensor_id;sensor_type;location;lat;lon;timestamp;temperature;humidity
33207;DHT22;19565;46.602;11.534;2023-02-28T00:01:25;6.50;67.80
33207;DHT22;19565;46.602;11.534;2023-02-28T00:03:54;6.60;68.00
33207;DHT22;19565;46.602;11.534;2023-02-28T00:06:23;6.70;68.40
33207;DHT22;19565;46.602;11.534;2023-02-28T00:08:51;6.80;68.20
33207;DHT22;19565;46.602;11.534;2023-02-28T00:11:21;6.80;68.30
33207;DHT22;19565;46.602;11.534;2023-02-28T00:13:50;6.90;68.20
33207;DHT22;19565;46.602;11.534;2023-02-28T00:16:21;7.00;69.00
33207;DHT22;19565;46.602;11.534;2023-02-28T00:18:49;7.00;68.20
33207;DHT22;19565;46.602;11.534;2023-02-28T00:21:18;7.00;68.40
33207;DHT22;19565;46.602;11.534;2023-02-28T00:23:46;7.00;68.50
33207;DHT22;19565;46.602;11.534;2023-02-28T00:26:14;6.90;68.00
33207;DHT22;19565;46.602;11.534;2023-02-28T00:28:42;7.00;68.40
33207;DHT22;19565;46.602;11.534;2023-02-28T00:31:12;7.00;69.90
33207;DHT22;19565;46.602;11.534;2023-02-28T00:33:40;6.90;70.30
33207;DHT22;19565;46.602;11.534;2023-02-28T00:36:10;6.90;70.50
33207;DHT22;19565;46.602;11.534;2023-02-28T00:38:39;6.90;71.00
33207;DHT22;19565;46.602;11.534;2023-02-28T00:41:08;6.80;73.20
33207;DHT22;19565;46.602;11.534;2023-02-28T00:43:39;6.70;73.10
33207;DHT22;19565;46.602;11.534;2023-02-28T00:46:07;6.60;72.70
33207;DHT22;19565;46.602;11.534;2023-02-28T00:48:37;6.50;72.60
33207;DHT22;19565;46.602;11.534;2023-02-28T00:51:05;6.50;73.30
33207;DHT22;19565;46.602;11.534;2023-02-28T00:53:33;6.50;73.40
33207;DHT22;19565;46.602;11.534;2023-02-28T00:56:01;6.40;73.60
33207;DHT22;19565;46.602;11.534;2023-02-28T00:58:29;6.40;73.40
33207;DHT22;19565;46.602;11.534;2023-02-28T01:00:57;6.30;73.30
33207;DHT22;19565;46.602;11.534;2023-02-28T01:03:25;6.30;73.00
33207;DHT22;19565;46.602;11.534;2023-02-28T01:05:55;6.30;73.40
33207;DHT22;19565;46.602;11.534;2023-02-28T01:08:23;6.20;73.80
33207;DHT22;19565;46.602;11.534;2023-02-28T01:10:52;6.30;74.30
33207;DHT22;19565;46.602;11.534;2023-02-28T01:13:20;6.20;74.30
33207;DHT22;19565;46.602;11.534;2023-02-28T01:15:51;6.20;74.20
33207;DHT22;19565;46.602;11.534;2023-02-28T01:18:21;6.10;74.20
33207;DHT22;19565;46.602;11.534;2023-02-28T01:20:49;6.20;74.90
33207;DHT22;19565;46.602;11.534;2023-02-28T01:23:20;6.10;75.20
33207;DHT22;19565;46.602;11.534;2023-02-28T01:25:48;6.10;75.90
33207;DHT22;19565;46.602;11.534;2023-02-28T01:28:16;6.10;75.70
33207;DHT22;19565;46.602;11.534;2023-02-28T01:30:47;6.10;74.20
33207;DHT22;19565;46.602;11.534;2023-02-28T01:33:16;6.00;74.50
33207;DHT22;19565;46.602;11.534;2023-02-28T01:35:44;6.00;74.90
33207;DHT22;19565;46.602;11.534;2023-02-28T01:38:12;5.90;75.00
33207;DHT22;19565;46.602;11.534;2023-02-28T01:40:49;5.90;74.40
33207;DHT22;19565;46.602;11.534;2023-02-28T01:43:21;5.90;74.40
33207;DHT22;19565;46.602;11.534;2023-02-28T01:45:50;6.00;76.40
33207;DHT22;19565;46.602;11.534;2023-02-28T01:48:19;5.90;77.70
33207;DHT22;19565;46.602;11.534;2023-02-28T01:50:48;6.00;76.50
33207;DHT22;19565;46.602;11.534;2023-02-28T01:53:19;6.00;76.10
33207;DHT22;19565;46.602;11.534;2023-02-28T01:55:51;6.00;77.40
33207;DHT22;19565;46.602;11.534;2023-02-28T01:58:20;5.90;76.60
33207;DHT22;19565;46.602;11.534;2023-02-28T02:00:49;5.90;75.70
33207;DHT22;19565;46.602;11.534;2023-02-28T02:03:18;5.80;75.70
33207;DHT22;19565;46.602;11.534;2023-02-28T02:05:48;5.80;75.40
33207;DHT22;19565;46.602;11.534;2023-02-28T02:08:18;5.80;76.00
33207;DHT22;19565;46.602;11.534;2023-02-28T02:10:50;5.70;77.10
33207;DHT22;19565;46.602;11.534;2023-02-28T02:13:33;5.70;77.40
33207;DHT22;19565;46.602;11.534;2023-02-28T02:16:10;5.60;77.60
33207;DHT22;19565;46.602;11.534;2023-02-28T02:18:45;5.70;76.70
33207;DHT22;19565;46.602;11.534;2023-02-28T02:21:32;5.70;77.10
33207;DHT22;19565;46.602;11.534;2023-02-28T02:24:28;5.70;78.30
33207;DHT22;19565;46.602;11.534;2023-02-28T02:27:14;5.70;78.50
33207;DHT22;19565;46.602;11.534;2023-02-28T02:30:08;5.70;78.50
33207;DHT22;19565;46.602;11.534;2023-02-28T02:33:00;5.70;77.70
33207;DHT22;19565;46.602;11.534;2023-02-28T02:35:37;5.80;79.10
33207;DHT22;19565;46.602;11.534;2023-02-28T02:38:10;5.70;80.80
33207;DHT22;19565;46.602;11.534;2023-02-28T02:40:45;5.70;79.90
33207;DHT22;19565;46.602;11.534;2023-02-28T02:43:19;5.60;79.40
33207;DHT22;19565;46.602;11.534;2023-02-28T02:45:52;5.60;81.30
33207;DHT22;19565;46.602;11.534;2023-02-28T02:48:26;5.60;82.20
33207;DHT22;19565;46.602;11.534;2023-02-28T02:50:58;5.50;79.80
33207;DHT22;19565;46.602;11.534;2023-02-28T02:53:30;5.50;79.00
33207;DHT22;19565;46.602;11.534;2023-02-28T02:56:01;5.60;79.50
33207;DHT22;19565;46.602;11.534;2023-02-28T02:58:35;5.60;81.70
33207;DHT22;19565;46.602;11.534;2023-02-28T03:01:11;5.60;81.40
33207;DHT22;19565;46.602;11.534;2023-02-28T03:03:40;5.60;81.00
33207;DHT22;19565;46.602;11.534;2023-02-28T03:06:10;5.70;81.10
33207;DHT22;19565;46.602;11.534;2023-02-28T03:08:38;5.70;80.90
33207;DHT22;19565;46.602;11.534;2023-02-28T03:11:11;5.70;80.00
33207;DHT22;19565;46.602;11.534;2023-02-28T03:13:55;5.70;80.80
33207;DHT22;19565;46.602;11.534;2023-02-28T03:16:35;5.70;81.50
33207;DHT22;19565;46.602;11.534;2023-02-28T03:22:12;5.70;82.10
33207;DHT22;19565;46.602;11.534;2023-02-28T03:24:49;5.70;82.30
33207;DHT22;19565;46.602;11.534;2023-02-28T03:27:23;5.70;81.20
33207;DHT22;19565;46.602;11.534;2023-02-28T03:29:57;5.70;80.40
33207;DHT22;19565;46.602;11.534;2023-02-28T03:32:29;5.80;81.00
33207;DHT22;19565;46.602;11.534;2023-02-28T03:35:04;5.80;82.20
33207;DHT22;19565;46.602;11.534;2023-02-28T03:37:37;5.80;82.60
33207;DHT22;19565;46.602;11.534;2023-02-28T03:40:09;5.80;83.10
33207;DHT22;19565;46.602;11.534;2023-02-28T03:42:42;5.70;83.20
33207;DHT22;19565;46.602;11.534;2023-02-28T03:45:15;5.70;82.80
33207;DHT22;19565;46.602;11.534;2023-02-28T03:47:48;5.70;82.10
33207;DHT22;19565;46.602;11.534;2023-02-28T03:50:19;5.80;80.90
33207;DHT22;19565;46.602;11.534;2023-02-28T03:52:54;5.70;79.20
33207;DHT22;19565;46.602;11.534;2023-02-28T03:55:30;5.20;78.00
33207;DHT22;19565;46.602;11.534;2023-02-28T03:58:04;5.00;78.90
33207;DHT22;19565;46.602;11.534;2023-02-28T04:00:35;4.80;79.20
33207;DHT22;19565;46.602;11.534;2023-02-28T04:03:05;4.80;79.20
33207;DHT22;19565;46.602;11.534;2023-02-28T04:05:33;4.90;78.60
33207;DHT22;19565;46.602;11.534;2023-02-28T04:08:13;5.10;78.20
33207;DHT22;19565;46.602;11.534;2023-02-28T04:10:41;5.40;78.00
33207;DHT22;19565;46.602;11.534;2023-02-28T04:13:13;5.30;75.70
33207;DHT22;19565;46.602;11.534;2023-02-28T04:15:40;5.30;75.30
33207;DHT22;19565;46.602;11.534;2023-02-28T04:18:09;5.10;74.70
33207;DHT22;19565;46.602;11.534;2023-02-28T04:20:36;5.10;74.40
33207;DHT22;19565;46.602;11.534;2023-02-28T04:23:05;5.10;74.40
33207;DHT22;19565;46.602;11.534;2023-02-28T04:25:34;5.00;74.40
33207;DHT22;19565;46.602;11.534;2023-02-28T04:28:02;5.00;74.40
33207;DHT22;19565;46.602;11.534;2023-02-28T04:30:30;5.00;74.40
33207;DHT22;19565;46.602;11.534;2023-02-28T04:32:59;5.00;74.40
33207;DHT22;19565;46.602;11.534;2023-02-28T04:35:27;5.00;74.30
33207;DHT22;19565;46.602;11.534;2023-02-28T04:37:55;5.00;74.50
33207;DHT22;19565;46.602;11.534;2023-02-28T04:40:23;5.00;74.30
33207;DHT22;19565;46.602;11.534;2023-02-28T04:42:53;4.90;74.60
33207;DHT22;19565;46.602;11.534;2023-02-28T04:45:21;4.90;74.70
33207;DHT22;19565;46.602;11.534;2023-02-28T04:47:48;4.90;74.70
33207;DHT22;19565;46.602;11.534;2023-02-28T04:50:17;4.90;74.90
33207;DHT22;19565;46.602;11.534;2023-02-28T04:52:45;5.00;74.70
33207;DHT22;19565;46.602;11.534;2023-02-28T04:55:13;5.00;74.60
33207;DHT22;19565;46.602;11.534;2023-02-28T04:57:41;5.00;74.40
33207;DHT22;19565;46.602;11.534;2023-02-28T05:00:12;5.10;74.30
33207;DHT22;19565;46.602;11.534;2023-02-28T05:02:43;5.10;74.20
33207;DHT22;19565;46.602;11.534;2023-02-28T05:05:11;5.10;74.00
33207;DHT22;19565;46.602;11.534;2023-02-28T05:07:44;4.90;74.30
33207;DHT22;19565;46.602;11.534;2023-02-28T05:10:12;4.90;74.50
33207;DHT22;19565;46.602;11.534;2023-02-28T05:12:40;4.90;74.40
33207;DHT22;19565;46.602;11.534;2023-02-28T05:15:14;4.90;74.40
33207;DHT22;19565;46.602;11.534;2023-02-28T05:17:43;4.90;74.50
33207;DHT22;19565;46.602;11.534;2023-02-28T05:20:11;4.90;74.60
33207;DHT22;19565;46.602;11.534;2023-02-28T05:22:42;4.90;74.40
33207;DHT22;19565;46.602;11.534;2023-02-28T05:25:13;5.00;74.10
33207;DHT22;19565;46.602;11.534;2023-02-28T05:27:43;5.00;74.20
33207;DHT22;19565;46.602;11.534;2023-02-28T05:30:11;5.00;73.90
33207;DHT22;19565;46.602;11.534;2023-02-28T05:32:41;4.90;74.10
33207;DHT22;19565;46.602;11.534;2023-02-28T05:35:11;4.90;74.40
33207;DHT22;19565;46.602;11.534;2023-02-28T05:37:39;4.90;74.20
33207;DHT22;19565;46.602;11.534;2023-02-28T05:40:08;5.00;73.90
33207;DHT22;19565;46.602;11.534;2023-02-28T05:42:37;5.00;73.90
33207;DHT22;19565;46.602;11.534;2023-02-28T05:45:07;5.10;73.60
33207;DHT22;19565;46.602;11.534;2023-02-28T05:47:35;5.10;73.50
33207;DHT22;19565;46.602;11.534;2023-02-28T05:50:06;5.10;73.40
33207;DHT22;19565;46.602;11.534;2023-02-28T05:52:36;5.00;73.60
33207;DHT22;19565;46.602;11.534;2023-02-28T05:55:05;5.00;73.80
33207;DHT22;19565;46.602;11.534;2023-02-28T05:57:33;5.00;73.60
33207;DHT22;19565;46.602;11.534;2023-02-28T06:00:02;5.10;73.60
33207;DHT22;19565;46.602;11.534;2023-02-28T06:02:30;5.10;73.60
33207;DHT22;19565;46.602;11.534;2023-02-28T06:04:59;5.10;73.40
33207;DHT22;19565;46.602;11.534;2023-02-28T06:07:28;4.90;73.70
33207;DHT22;19565;46.602;11.534;2023-02-28T06:09:56;5.00;74.10
33207;DHT22;19565;46.602;11.534;2023-02-28T06:12:24;5.00;73.70
33207;DHT22;19565;46.602;11.534;2023-02-28T06:14:52;5.00;73.60
33207;DHT22;19565;46.602;11.534;2023-02-28T06:17:20;5.00;73.60
33207;DHT22;19565;46.602;11.534;2023-02-28T06:19:48;5.00;73.90
33207;DHT22;19565;46.602;11.534;2023-02-28T06:22:16;4.90;73.80
33207;DHT22;19565;46.602;11.534;2023-02-28T06:24:45;4.90;73.90
33207;DHT22;19565;46.602;11.534;2023-02-28T06:27:13;4.90;74.10
33207;DHT22;19565;46.602;11.534;2023-02-28T06:29:41;4.90;73.80
33207;DHT22;19565;46.602;11.534;2023-02-28T06:32:09;4.90;73.90
33207;DHT22;19565;46.602;11.534;2023-02-28T06:34:37;4.90;73.90
33207;DHT22;19565;46.602;11.534;2023-02-28T06:37:05;5.00;74.10
33207;DHT22;19565;46.602;11.534;2023-02-28T06:39:33;4.90;73.40
33207;DHT22;19565;46.602;11.534;2023-02-28T06:42:03;5.00;73.10
33207;DHT22;19565;46.602;11.534;2023-02-28T06:44:31;4.90;73.40
33207;DHT22;19565;46.602;11.534;2023-02-28T06:47:03;5.00;73.60
33207;DHT22;19565;46.602;11.534;2023-02-28T06:49:32;5.20;73.10
33207;DHT22;19565;46.602;11.534;2023-02-28T06:52:01;5.20;73.10
33207;DHT22;19565;46.602;11.534;2023-02-28T06:54:30;5.20;72.80
33207;DHT22;19565;46.602;11.534;2023-02-28T06:56:58;5.20;72.60
33207;DHT22;19565;46.602;11.534;2023-02-28T06:59:27;5.10;73.00
33207;DHT22;19565;46.602;11.534;2023-02-28T07:01:55;5.20;72.90
33207;DHT22;19565;46.602;11.534;2023-02-28T07:04:23;5.20;72.70
33207;DHT22;19565;46.602;11.534;2023-02-28T07:06:52;5.10;72.50
33207;DHT22;19565;46.602;11.534;2023-02-28T07:09:22;5.10;72.60
33207;DHT22;19565;46.602;11.534;2023-02-28T07:11:50;5.10;72.70
33207;DHT22;19565;46.602;11.534;2023-02-28T07:14:18;5.10;72.60
33207;DHT22;19565;46.602;11.534;2023-02-28T07:16:48;5.10;72.80
33207;DHT22;19565;46.602;11.534;2023-02-28T07:19:17;5.10;72.90
33207;DHT22;19565;46.602;11.534;2023-02-28T07:21:45;5.10;72.80
33207;DHT22;19565;46.602;11.534;2023-02-28T07:24:13;5.10;72.80
33207;DHT22;19565;46.602;11.534;2023-02-28T07:26:42;5.10;72.80
33207;DHT22;19565;46.602;11.534;2023-02-28T07:29:10;5.10;72.70
33207;DHT22;19565;46.602;11.534;2023-02-28T07:31:38;5.20;72.60
33207;DHT22;19565;46.602;11.534;2023-02-28T07:34:08;5.20;72.20
33207;DHT22;19565;46.602;11.534;2023-02-28T07:36:36;5.30;72.40
33207;DHT22;19565;46.602;11.534;2023-02-28T07:39:04;5.20;72.70
33207;DHT22;19565;46.602;11.534;2023-02-28T07:41:32;5.20;72.80
33207;DHT22;19565;46.602;11.534;2023-02-28T07:44:04;5.00;72.80
33207;DHT22;19565;46.602;11.534;2023-02-28T07:46:32;5.00;73.10
33207;DHT22;19565;46.602;11.534;2023-02-28T07:49:03;5.10;72.80
33207;DHT22;19565;46.602;11.534;2023-02-28T07:51:32;5.10;72.90
33207;DHT22;19565;46.602;11.534;2023-02-28T07:54:01;5.20;72.40
33207;DHT22;19565;46.602;11.534;2023-02-28T07:56:29;5.10;72.60
33207;DHT22;19565;46.602;11.534;2023-02-28T07:58:57;5.10;72.80
33207;DHT22;19565;46.602;11.534;2023-02-28T08:01:25;5.10;73.10
33207;DHT22;19565;46.602;11.534;2023-02-28T08:03:54;5.30;72.80
33207;DHT22;19565;46.602;11.534;2023-02-28T08:06:24;5.30;72.30
33207;DHT22;19565;46.602;11.534;2023-02-28T08:08:54;5.40;71.90
33207;DHT22;19565;46.602;11.534;2023-02-28T08:11:22;5.40;72.10
33207;DHT22;19565;46.602;11.534;2023-02-28T08:13:51;5.50;72.10
33207;DHT22;19565;46.602;11.534;2023-02-28T08:16:19;5.60;71.80
33207;DHT22;19565;46.602;11.534;2023-02-28T08:18:49;5.60;71.70
33207;DHT22;19565;46.602;11.534;2023-02-28T08:21:17;5.60;71.50
33207;DHT22;19565;46.602;11.534;2023-02-28T08:23:46;5.60;71.30
33207;DHT22;19565;46.602;11.534;2023-02-28T08:26:16;5.50;71.70
33207;DHT22;19565;46.602;11.534;2023-02-28T08:28:44;5.60;71.60
33207;DHT22;19565;46.602;11.534;2023-02-28T08:31:15;5.60;71.40
33207;DHT22;19565;46.602;11.534;2023-02-28T08:33:43;5.70;71.40
33207;DHT22;19565;46.602;11.534;2023-02-28T08:36:12;5.70;71.10
33207;DHT22;19565;46.602;11.534;2023-02-28T08:38:40;5.80;71.30
33207;DHT22;19565;46.602;11.534;2023-02-28T08:41:11;5.80;70.80
33207;DHT22;19565;46.602;11.534;2023-02-28T08:43:41;5.90;70.70
33207;DHT22;19565;46.602;11.534;2023-02-28T08:46:12;6.00;71.10
33207;DHT22;19565;46.602;11.534;2023-02-28T08:48:40;6.10;70.90
33207;DHT22;19565;46.602;11.534;2023-02-28T08:51:10;6.20;70.60
33207;DHT22;19565;46.602;11.534;2023-02-28T08:53:39;6.30;70.00
33207;DHT22;19565;46.602;11.534;2023-02-28T08:56:09;6.30;69.60
33207;DHT22;19565;46.602;11.534;2023-02-28T08:58:37;6.30;69.20
33207;DHT22;19565;46.602;11.534;2023-02-28T09:01:11;6.20;69.50
33207;DHT22;19565;46.602;11.534;2023-02-28T09:03:41;6.30;69.40
33207;DHT22;19565;46.602;11.534;2023-02-28T09:06:10;6.20;69.00
33207;DHT22;19565;46.602;11.534;2023-02-28T09:08:38;6.30;69.40
33207;DHT22;19565;46.602;11.534;2023-02-28T09:11:07;6.30;69.50
33207;DHT22;19565;46.602;11.534;2023-02-28T09:13:36;6.40;69.00
33207;DHT22;19565;46.602;11.534;2023-02-28T09:16:05;6.40;68.80
33207;DHT22;19565;46.602;11.534;2023-02-28T09:18:36;6.30;68.90
33207;DHT22;19565;46.602;11.534;2023-02-28T09:21:05;6.40;69.10
33207;DHT22;19565;46.602;11.534;2023-02-28T09:23:33;6.40;68.50
33207;DHT22;19565;46.602;11.534;2023-02-28T09:26:04;6.40;68.80
33207;DHT22;19565;46.602;11.534;2023-02-28T09:28:33;6.50;68.80
33207;DHT22;19565;46.602;11.534;2023-02-28T09:31:01;6.50;68.50
33207;DHT22;19565;46.602;11.534;2023-02-28T09:33:31;6.60;67.90
33207;DHT22;19565;46.602;11.534;2023-02-28T09:36:02;6.60;68.10
33207;DHT22;19565;46.602;11.534;2023-02-28T09:38:31;6.70;68.40
33207;DHT22;19565;46.602;11.534;2023-02-28T09:41:01;6.80;67.60
33207;DHT22;19565;46.602;11.534;2023-02-28T09:43:34;6.80;67.70
33207;DHT22;19565;46.602;11.534;2023-02-28T09:46:14;6.90;67.10
33207;DHT22;19565;46.602;11.534;2023-02-28T09:48:46;6.90;67.40
33207;DHT22;19565;46.602;11.534;2023-02-28T09:51:29;7.00;67.10
33207;DHT22;19565;46.602;11.534;2023-02-28T09:53:58;7.00;66.90
33207;DHT22;19565;46.602;11.534;2023-02-28T09:56:33;7.10;66.90
33207;DHT22;19565;46.602;11.534;2023-02-28T09:59:04;7.10;66.70
33207;DHT22;19565;46.602;11.534;2023-02-28T10:01:39;7.20;66.30
33207;DHT22;19565;46.602;11.534;2023-02-28T10:04:16;7.20;66.40
33207;DHT22;19565;46.602;11.534;2023-02-28T10:06:53;7.30;67.30
33207;DHT22;19565;46.602;11.534;2023-02-28T10:09:24;7.40;66.40
33207;DHT22;19565;46.602;11.534;2023-02-28T10:11:54;7.40;65.90
33207;DHT22;19565;46.602;11.534;2023-02-28T10:14:27;7.50;65.70
33207;DHT22;19565;46.602;11.534;2023-02-28T10:16:59;7.50;65.20
33207;DHT22;19565;46.602;11.534;2023-02-28T10:19:33;7.50;65.60
33207;DHT22;19565;46.602;11.534;2023-02-28T10:22:09;7.60;65.20
33207;DHT22;19565;46.602;11.534;2023-02-28T10:24:41;7.70;65.00
33207;DHT22;19565;46.602;11.534;2023-02-28T10:27:14;7.70;64.90
33207;DHT22;19565;46.602;11.534;2023-02-28T10:29:44;7.80;65.00
33207;DHT22;19565;46.602;11.534;2023-02-28T10:32:18;7.90;64.60
33207;DHT22;19565;46.602;11.534;2023-02-28T10:34:51;7.90;64.60
33207;DHT22;19565;46.602;11.534;2023-02-28T10:37:21;7.90;64.40
33207;DHT22;19565;46.602;11.534;2023-02-28T10:39:50;8.00;64.20
33207;DHT22;19565;46.602;11.534;2023-02-28T10:42:23;8.10;64.10
33207;DHT22;19565;46.602;11.534;2023-02-28T10:45:07;8.00;63.90
33207;DHT22;19565;46.602;11.534;2023-02-28T10:47:48;8.10;63.90
33207;DHT22;19565;46.602;11.534;2023-02-28T10:50:39;8.10;63.90
33207;DHT22;19565;46.602;11.534;2023-02-28T10:53:33;8.10;63.80
33207;DHT22;19565;46.602;11.534;2023-02-28T10:56:22;8.20;63.60
33207;DHT22;19565;46.602;11.534;2023-02-28T10:58:54;8.30;63.00
33207;DHT22;19565;46.602;11.534;2023-02-28T11:01:24;8.30;63.40
33207;DHT22;19565;46.602;11.534;2023-02-28T11:03:52;8.40;63.30
33207;DHT22;19565;46.602;11.534;2023-02-28T11:06:22;8.50;63.40
33207;DHT22;19565;46.602;11.534;2023-02-28T11:08:54;8.50;63.10
33207;DHT22;19565;46.602;11.534;2023-02-28T11:11:25;8.60;62.90
33207;DHT22;19565;46.602;11.534;2023-02-28T11:14:02;8.60;62.60
33207;DHT22;19565;46.602;11.534;2023-02-28T11:16:33;8.70;62.50
33207;DHT22;19565;46.602;11.534;2023-02-28T11:19:03;8.70;62.30
33207;DHT22;19565;46.602;11.534;2023-02-28T11:21:34;8.70;62.40
33207;DHT22;19565;46.602;11.534;2023-02-28T11:24:16;8.70;62.30
33207;DHT22;19565;46.602;11.534;2023-02-28T11:26:48;8.80;62.20
33207;DHT22;19565;46.602;11.534;2023-02-28T11:29:19;8.80;62.40
33207;DHT22;19565;46.602;11.534;2023-02-28T11:32:12;8.90;62.30
33207;DHT22;19565;46.602;11.534;2023-02-28T11:34:42;8.90;62.30
33207;DHT22;19565;46.602;11.534;2023-02-28T11:37:13;9.00;62.30
33207;DHT22;19565;46.602;11.534;2023-02-28T11:39:44;9.10;61.60
33207;DHT22;19565;46.602;11.534;2023-02-28T11:42:37;9.10;61.80
33207;DHT22;19565;46.602;11.534;2023-02-28T11:45:19;9.10;61.50
33207;DHT22;19565;46.602;11.534;2023-02-28T11:47:56;9.20;61.60
33207;DHT22;19565;46.602;11.534;2023-02-28T11:50:43;9.20;61.40
33207;DHT22;19565;46.602;11.534;2023-02-28T11:53:19;9.30;60.90
33207;DHT22;19565;46.602;11.534;2023-02-28T11:55:55;9.40;60.90
33207;DHT22;19565;46.602;11.534;2023-02-28T11:58:36;9.40;60.90
33207;DHT22;19565;46.602;11.534;2023-02-28T12:01:20;9.40;60.80
33207;DHT22;19565;46.602;11.534;2023-02-28T12:03:59;9.40;60.90
33207;DHT22;19565;46.602;11.534;2023-02-28T12:06:36;9.50;61.00
33207;DHT22;19565;46.602;11.534;2023-02-28T12:09:28;9.60;61.00
33207;DHT22;19565;46.602;11.534;2023-02-28T12:12:04;9.60;61.20
33207;DHT22;19565;46.602;11.534;2023-02-28T12:14:58;9.70;60.70
33207;DHT22;19565;46.602;11.534;2023-02-28T12:17:39;9.80;60.70
33207;DHT22;19565;46.602;11.534;2023-02-28T12:20:18;9.80;60.20
33207;DHT22;19565;46.602;11.534;2023-02-28T12:22:58;9.80;60.40
33207;DHT22;19565;46.602;11.534;2023-02-28T12:25:48;9.90;61.20
33207;DHT22;19565;46.602;11.534;2023-02-28T12:28:23;10.00;59.80
33207;DHT22;19565;46.602;11.534;2023-02-28T12:30:56;10.00;59.50
33207;DHT22;19565;46.602;11.534;2023-02-28T12:33:31;10.00;60.40
33207;DHT22;19565;46.602;11.534;2023-02-28T12:36:03;10.00;59.80
33207;DHT22;19565;46.602;11.534;2023-02-28T12:38:37;10.00;59.50
33207;DHT22;19565;46.602;11.534;2023-02-28T12:41:12;10.10;59.60
33207;DHT22;19565;46.602;11.534;2023-02-28T12:43:45;10.10;59.80
33207;DHT22;19565;46.602;11.534;2023-02-28T12:46:17;10.20;59.50
33207;DHT22;19565;46.602;11.534;2023-02-28T12:48:50;10.20;59.40
33207;DHT22;19565;46.602;11.534;2023-02-28T12:51:23;10.20;59.70
33207;DHT22;19565;46.602;11.534;2023-02-28T12:53:59;10.30;59.40
33207;DHT22;19565;46.602;11.534;2023-02-28T12:56:39;10.40;59.40
33207;DHT22;19565;46.602;11.534;2023-02-28T12:59:17;10.50;59.10
33207;DHT22;19565;46.602;11.534;2023-02-28T13:02:15;10.50;59.40
33207;DHT22;19565;46.602;11.534;2023-02-28T13:05:10;10.50;59.00
33207;DHT22;19565;46.602;11.534;2023-02-28T13:08:04;10.60;59.70
33207;DHT22;19565;46.602;11.534;2023-02-28T13:10:42;10.60;59.40
33207;DHT22;19565;46.602;11.534;2023-02-28T13:13:16;10.60;58.60
33207;DHT22;19565;46.602;11.534;2023-02-28T13:16:00;10.70;58.40
33207;DHT22;19565;46.602;11.534;2023-02-28T13:18:35;10.70;58.60
33207;DHT22;19565;46.602;11.534;2023-02-28T13:21:05;10.70;58.60
33207;DHT22;19565;46.602;11.534;2023-02-28T13:23:59;10.80;58.90
33207;DHT22;19565;46.602;11.534;2023-02-28T13:29:37;10.90;58.80
33207;DHT22;19565;46.602;11.534;2023-02-28T13:32:36;11.00;58.60
33207;DHT22;19565;46.602;11.534;2023-02-28T13:38:33;11.10;58.30
33207;DHT22;19565;46.602;11.534;2023-02-28T13:44:08;11.20;58.30
33207;DHT22;19565;46.602;11.534;2023-02-28T13:49:45;11.20;58.10
33207;DHT22;19565;46.602;11.534;2023-02-28T13:52:17;11.30;58.10
33207;DHT22;19565;46.602;11.534;2023-02-28T13:55:03;11.30;58.00
33207;DHT22;19565;46.602;11.534;2023-02-28T13:57:52;11.50;57.80
33207;DHT22;19565;46.602;11.534;2023-02-28T14:00:31;11.40;58.10
33207;DHT22;19565;46.602;11.534;2023-02-28T14:03:31;11.50;58.70
33207;DHT22;19565;46.602;11.534;2023-02-28T14:06:21;11.60;57.90
33207;DHT22;19565;46.602;11.534;2023-02-28T14:08:57;11.60;58.00
33207;DHT22;19565;46.602;11.534;2023-02-28T14:11:32;11.60;58.00
33207;DHT22;19565;46.602;11.534;2023-02-28T14:14:01;11.70;58.10
33207;DHT22;19565;46.602;11.534;2023-02-28T14:16:37;11.60;58.00
33207;DHT22;19565;46.602;11.534;2023-02-28T14:19:12;11.70;57.60
33207;DHT22;19565;46.602;11.534;2023-02-28T14:21:53;11.70;57.70
33207;DHT22;19565;46.602;11.534;2023-02-28T14:24:51;11.70;57.60
33207;DHT22;19565;46.602;11.534;2023-02-28T14:27:37;11.80;57.30
33207;DHT22;19565;46.602;11.534;2023-02-28T14:33:18;11.90;57.60
33207;DHT22;19565;46.602;11.534;2023-02-28T14:36:00;11.90;57.10
33207;DHT22;19565;46.602;11.534;2023-02-28T14:38:35;12.00;57.30
33207;DHT22;19565;46.602;11.534;2023-02-28T14:41:13;12.10;57.00
33207;DHT22;19565;46.602;11.534;2023-02-28T14:43:49;12.00;57.20
33207;DHT22;19565;46.602;11.534;2023-02-28T14:46:18;12.00;57.10
33207;DHT22;19565;46.602;11.534;2023-02-28T14:48:46;11.90;57.40
33207;DHT22;19565;46.602;11.534;2023-02-28T14:51:19;11.80;57.60
33207;DHT22;19565;46.602;11.534;2023-02-28T14:53:52;11.70;58.00
33207;DHT22;19565;46.602;11.534;2023-02-28T14:56:24;11.70;58.40
33207;DHT22;19565;46.602;11.534;2023-02-28T14:58:54;11.60;58.50
33207;DHT22;19565;46.602;11.534;2023-02-28T15:01:24;11.60;58.50
33207;DHT22;19565;46.602;11.534;2023-02-28T15:04:01;11.50;58.80
33207;DHT22;19565;46.602;11.534;2023-02-28T15:06:30;11.40;59.00
33207;DHT22;19565;46.602;11.534;2023-02-28T15:09:15;11.40;59.30
33207;DHT22;19565;46.602;11.534;2023-02-28T15:11:46;11.30;59.40
33207;DHT22;19565;46.602;11.534;2023-02-28T15:14:18;11.30;59.50
33207;DHT22;19565;46.602;11.534;2023-02-28T15:16:52;11.30;59.70
33207;DHT22;19565;46.602;11.534;2023-02-28T15:19:22;11.30;60.00
33207;DHT22;19565;46.602;11.534;2023-02-28T15:21:53;11.30;60.30
33207;DHT22;19565;46.602;11.534;2023-02-28T15:24:30;11.30;60.00
33207;DHT22;19565;46.602;11.534;2023-02-28T15:27:02;11.30;60.30
33207;DHT22;19565;46.602;11.534;2023-02-28T15:29:36;11.30;60.40
33207;DHT22;19565;46.602;11.534;2023-02-28T15:32:24;11.30;60.80
33207;DHT22;19565;46.602;11.534;2023-02-28T15:34:53;11.30;60.70
33207;DHT22;19565;46.602;11.534;2023-02-28T15:37:33;11.30;60.80
33207;DHT22;19565;46.602;11.534;2023-02-28T15:40:14;11.20;61.00
33207;DHT22;19565;46.602;11.534;2023-02-28T15:42:43;11.20;60.80
33207;DHT22;19565;46.602;11.534;2023-02-28T15:45:32;11.20;61.20
33207;DHT22;19565;46.602;11.534;2023-02-28T15:48:01;11.20;60.70
33207;DHT22;19565;46.602;11.534;2023-02-28T15:50:40;11.20;61.40
33207;DHT22;19565;46.602;11.534;2023-02-28T15:53:13;11.10;62.20
33207;DHT22;19565;46.602;11.534;2023-02-28T15:55:44;11.10;61.60
33207;DHT22;19565;46.602;11.534;2023-02-28T15:58:13;11.10;61.70
33207;DHT22;19565;46.602;11.534;2023-02-28T16:00:43;11.00;61.80
33207;DHT22;19565;46.602;11.534;2023-02-28T16:03:26;11.00;62.00
33207;DHT22;19565;46.602;11.534;2023-02-28T16:06:24;11.00;62.50
33207;DHT22;19565;46.602;11.534;2023-02-28T16:08:53;10.90;63.10
33207;DHT22;19565;46.602;11.534;2023-02-28T16:11:23;10.80;63.90
33207;DHT22;19565;46.602;11.534;2023-02-28T16:13:52;10.80;64.20
33207;DHT22;19565;46.602;11.534;2023-02-28T16:16:23;10.70;64.50
33207;DHT22;19565;46.602;11.534;2023-02-28T16:18:51;10.70;65.00
33207;DHT22;19565;46.602;11.534;2023-02-28T16:21:20;10.70;65.50